Time;durP1;ratioP1;P1;durP2;ratioP2;P2;SDS_P1;SDS_P2;PMS_P1;PMS_P2;Temp;Humidity;BMP_temperature;BMP_pressure;BME280_temperature;BME280_humidity;BME280_pressure;Samples;Min_cycle;Max_cycle;Signal;HPM_P1;HPM_P2
2023/01/06 00:00:25;;;;;;;7.77;4.10;;;;;;;12.90;54.18;100261.81;10430437;28;20246;-41
2023/01/06 00:05:28;;;;;;;5.93;4.40;;;;;;;11.42;56.88;100241.78;10437173;28;20232;-41
2023/01/06 00:10:30;;;;;;;6.97;3.60;;;;;;;13.59;52.19;100164.53;10442319;28;20740;-45
2023/01/06 00:15:32;;;;;;;4.03;3.50;;;;;;;13.14;53.35;100241.00;10443843;28;20243;-42
2023/01/06 00:20:34;;;;;;;4.40;4.00;;;;;;;12.94;54.68;100201.34;10447234;28;20240;-40
2023/01/06 00:25:36;;;;;;;5.53;3.20;;;;;;;12.10;54.52;100212.41;10446161;28;20251;-42
2023/01/06 00:43:22;;;;;;;5.20;3.20;;;;;;;12.63;54.50;100229.25;10422282;28;20228;-45
2023/01/06 00:48:24;;;;;;;6.57;3.40;;;;;;;13.57;53.03;100160.38;10438907;28;20223;-40
2023/01/06 00:53:25;;;;;;;5.77;3.50;;;;;;;12.79;53.34;100153.03;10441394;28;20277;-40
2023/01/06 00:58:31;;;;;;;4.30;3.40;;;;;;;13.20;53.08;100178.44;10442100;28;20599;-43
2023/01/06 01:03:35;;;;;;;4.27;3.60;;;;;;;12.30;55.02;100236.81;10445038;28;20259;-40
2023/01/06 01:08:37;;;;;;;5.40;3.30;;;;;;;12.10;54.53;100207.88;10445866;28;20239;-44
2023/01/06 01:13:39;;;;;;;3.97;3.30;;;;;;;12.64;53.14;100166.50;10443083;28;20275;-43
2023/01/06 01:18:40;;;;;;;4.90;3.20;;;;;;;13.39;52.43;100133.97;10437702;28;20240;-37
2023/01/06 01:23:42;;;;;;;5.73;3.73;;;;;;;14.30;50.65;100163.53;10442586;28;20585;-42
2023/01/06 01:28:44;;;;;;;4.50;3.23;;;;;;;12.09;54.11;100211.56;10444453;28;20242;-44
2023/01/06 01:33:46;;;;;;;3.57;3.27;;;;;;;14.36;50.81;100167.31;10444148;28;20231;-42
2023/01/06 01:38:48;;;;;;;5.27;4.07;;;;;;;14.38;50.29;100179.53;10441026;28;20249;-42
2023/01/06 01:43:49;;;;;;;4.73;3.20;;;;;;;13.90;51.51;100171.34;10439782;28;20228;-39
2023/01/06 01:48:55;;;;;;;4.33;3.50;;;;;;;14.62;50.25;100190.00;10441147;28;20264;-43
2023/01/06 01:54:02;;;;;;;6.43;3.80;;;;;;;14.65;50.11;100193.09;10437846;28;20228;-39
2023/01/06 01:59:27;;;;;;;4.83;4.37;;;;;;;14.67;50.69;100192.91;10443280;28;20275;-43
2023/01/06 02:04:33;;;;;;;4.77;4.00;;;;;;;13.42;52.02;100184.66;10440233;28;20228;-42
2023/01/06 02:10:19;;;;;;;5.53;4.43;;;;;;;14.13;51.01;100186.44;10439588;28;20604;-42
2023/01/06 02:15:23;;;;;;;6.83;4.37;;;;;;;12.91;53.41;100210.59;10432531;28;20369;-41
2023/01/06 02:20:46;;;;;;;5.50;4.20;;;;;;;14.04;52.37;100177.69;10440132;28;20236;-43
2023/01/06 02:26:09;;;;;;;4.73;3.80;;;;;;;13.63;52.05;100130.88;10442364;28;20254;-43
2023/01/06 02:31:48;;;;;;;4.07;3.50;;;;;;;13.77;52.90;100147.09;10440546;28;20791;-43
2023/01/06 02:37:13;;;;;;;5.10;4.30;;;;;;;12.74;54.74;100220.72;10439535;28;20933;-45
2023/01/06 02:42:24;;;;;;;5.23;4.17;;;;;;;13.24;54.12;100190.44;10442310;28;20717;-39
2023/01/06 02:47:49;;;;;;;4.83;3.87;;;;;;;13.10;54.49;100174.19;10436629;28;20737;-43
2023/01/06 02:53:05;;;;;;;4.70;3.77;;;;;;;14.15;51.97;100128.69;10434963;28;20234;-45
2023/01/06 02:58:33;;;;;;;4.43;4.03;;;;;;;12.95;53.45;100154.63;10441938;28;20255;-43
2023/01/06 03:03:38;;;;;;;4.47;3.80;;;;;;;13.57;52.62;100149.63;10419022;28;20236;-44
2023/01/06 03:08:44;;;;;;;4.10;3.70;;;;;;;14.63;50.79;100141.31;10439532;28;20311;-43
2023/01/06 03:13:55;;;;;;;4.20;3.80;;;;;;;12.71;53.80;100177.31;10436746;28;20970;-44
2023/01/06 03:18:57;;;;;;;4.70;3.83;;;;;;;12.52;54.78;100206.41;10441485;28;20716;-43
2023/01/06 03:23:59;;;;;;;4.77;3.97;;;;;;;12.61;55.96;100133.81;10440754;28;20236;-44
2023/01/06 03:29:05;;;;;;;3.47;3.13;;;;;;;12.80;54.46;100111.72;10434977;28;20243;-44
2023/01/06 03:34:34;;;;;;;4.00;3.23;;;;;;;11.43;57.60;100193.38;10436855;28;20228;-43
2023/01/06 03:40:07;;;;;;;4.17;3.00;;;;;;;12.76;54.21;100174.06;10435776;28;20254;-45
2023/01/06 03:45:27;;;;;;;4.00;3.30;;;;;;;11.57;56.86;100204.31;10435864;28;20234;-43
2023/01/06 03:50:45;;;;;;;3.57;3.10;;;;;;;13.91;53.24;100088.81;10449466;28;20231;-41
2023/01/06 03:55:54;;;;;;;5.10;3.00;;;;;;;11.65;56.99;100211.50;10448555;28;20232;-42
2023/01/06 04:00:57;;;;;;;5.30;3.40;;;;;;;11.27;57.77;100188.13;10448287;28;20228;-41
2023/01/06 04:05:59;;;;;;;4.77;4.17;;;;;;;12.43;56.33;100112.72;10446273;28;20242;-40
2023/01/06 04:11:00;;;;;;;5.50;3.70;;;;;;;13.56;53.50;100086.13;10447302;28;20744;-41
2023/01/06 04:16:02;;;;;;;5.67;4.07;;;;;;;12.76;54.25;100113.13;10461983;22;20673;-36
2023/01/06 04:21:04;;;;;;;5.17;3.80;;;;;;;12.38;55.46;100166.97;10478203;28;20304;-36
2023/01/06 04:26:06;;;;;;;7.37;4.27;;;;;;;11.46;56.13;100149.31;10477035;28;20234;-35
2023/01/06 04:31:08;;;;;;;7.47;4.20;;;;;;;12.15;56.72;100180.50;10487554;28;20246;-37
2023/01/06 04:36:10;;;;;;;5.10;4.60;;;;;;;10.59;59.83;100153.06;10487943;28;20231;-37
2023/01/06 04:41:12;;;;;;;5.60;5.00;;;;;;;11.31;59.09;100121.66;10486704;28;20783;-36
2023/01/06 04:46:14;;;;;;;6.33;5.17;;;;;;;11.07;58.79;100153.81;10487728;28;20779;-36
2023/01/06 04:51:16;;;;;;;6.43;4.87;;;;;;;11.01;59.14;100151.84;10487427;28;20258;-36
2023/01/06 04:56:27;;;;;;;9.77;5.50;;;;;;;12.27;56.77;100100.38;10486907;28;20239;-35
2023/01/06 05:01:28;;;;;;;7.37;6.30;;;;;;;12.25;55.91;100054.09;10486586;28;20672;-35
2023/01/06 05:06:30;;;;;;;6.73;6.00;;;;;;;11.53;57.32;100126.13;10480592;28;20239;-35
2023/01/06 05:11:32;;;;;;;6.97;6.00;;;;;;;12.78;55.72;100038.56;10477141;28;20234;-37
2023/01/06 05:16:34;;;;;;;6.43;5.33;;;;;;;12.94;55.50;100040.19;10486676;28;20243;-37
2023/01/06 05:21:36;;;;;;;7.90;6.23;;;;;;;13.66;53.29;100065.91;10486151;28;20726;-36
2023/01/06 05:26:38;;;;;;;6.60;5.30;;;;;;;12.41;56.47;100086.06;10486335;28;20247;-37
2023/01/06 05:31:40;;;;;;;6.30;5.70;;;;;;;13.17;54.04;100057.91;10485003;28;20260;-36
2023/01/06 05:36:42;;;;;;;7.30;6.57;;;;;;;14.19;52.41;100104.94;10481528;28;20814;-36
2023/01/06 05:41:43;;;;;;;7.63;6.00;;;;;;;14.05;51.49;100109.34;10479037;28;20234;-36
2023/01/06 05:46:45;;;;;;;7.37;5.63;;;;;;;11.41;56.62;100199.94;10481328;28;20235;-35
2023/01/06 05:51:47;;;;;;;7.50;6.10;;;;;;;13.48;53.34;100084.44;10485068;28;20227;-37
2023/01/06 05:56:49;;;;;;;9.80;6.87;;;;;;;11.04;56.43;100207.72;10484985;28;20330;-36
2023/01/06 06:01:50;;;;;;;7.57;6.57;;;;;;;12.26;54.73;100145.13;10473662;28;20349;-35
2023/01/06 06:06:52;;;;;;;7.27;6.07;;;;;;;12.43;54.70;100182.50;10483944;28;20237;-35
2023/01/06 06:11:54;;;;;;;7.23;6.37;;;;;;;12.47;53.53;100140.88;10483989;28;20246;-36
2023/01/06 06:16:56;;;;;;;8.07;5.77;;;;;;;12.15;53.73;100193.91;10483736;28;20262;-35
2023/01/06 06:21:59;;;;;;;6.43;5.70;;;;;;;12.25;53.92;100197.16;10479929;28;20235;-36
2023/01/06 06:27:00;;;;;;;8.07;6.20;;;;;;;13.45;52.23;100162.78;10483875;28;20657;-36
2023/01/06 06:32:02;;;;;;;6.50;5.70;;;;;;;12.70;53.79;100207.84;10482561;28;20289;-36
2023/01/06 06:37:04;;;;;;;7.20;5.50;;;;;;;12.77;52.87;100157.72;10478837;28;20250;-36
2023/01/06 06:42:09;;;;;;;6.17;5.17;;;;;;;13.39;51.84;100158.16;10482461;28;20247;-35
2023/01/06 06:47:11;;;;;;;6.37;5.40;;;;;;;13.80;50.92;100182.50;10481943;28;20241;-36
2023/01/06 06:52:13;;;;;;;7.47;5.40;;;;;;;13.98;50.46;100192.72;10478698;28;20227;-36
2023/01/06 06:57:14;;;;;;;5.20;4.70;;;;;;;12.91;51.52;100226.72;10478245;28;20731;-36
2023/01/06 07:02:16;;;;;;;6.90;5.50;;;;;;;13.33;51.17;100221.59;10480593;28;20258;-35
2023/01/06 07:07:18;;;;;;;5.30;3.27;;;;;;;11.56;52.02;100307.22;10482570;28;20321;-36
2023/01/06 07:12:23;;;;;;;2.73;2.40;;;;;;;12.66;49.63;100238.78;10482383;28;20743;-36
2023/01/06 07:17:26;;;;;;;2.90;2.00;;;;;;;11.95;49.28;100292.84;10479320;28;20733;-35
2023/01/06 07:22:28;;;;;;;1.57;1.40;;;;;;;12.54;49.04;100292.13;10489149;28;20237;-35
2023/01/06 07:27:30;;;;;;;2.10;1.80;;;;;;;13.25;47.81;100249.38;10485866;28;20262;-36
2023/01/06 07:32:32;;;;;;;2.43;1.70;;;;;;;12.38;48.62;100293.09;10489356;28;20262;-37
2023/01/06 07:37:34;;;;;;;2.20;2.00;;;;;;;12.67;48.69;100286.09;10487157;28;20231;-35
2023/01/06 07:42:35;;;;;;;2.50;2.30;;;;;;;14.02;46.95;100253.22;10489922;28;20251;-35
2023/01/06 07:47:38;;;;;;;3.53;1.60;;;;;;;13.87;46.56;100254.31;10489647;28;20223;-36
2023/01/06 07:52:39;;;;;;;4.57;2.27;;;;;;;12.35;48.29;100336.38;10482323;28;20310;-36
2023/01/06 07:57:41;;;;;;;2.60;1.70;;;;;;;12.43;48.04;100336.31;10485433;28;20230;-35
2023/01/06 08:02:43;;;;;;;2.50;1.90;;;;;;;12.99;47.80;100314.41;10489357;28;20235;-36
2023/01/06 08:07:45;;;;;;;2.10;2.00;;;;;;;12.97;47.44;100304.88;10489675;28;20228;-35
2023/01/06 08:13:06;;;;;;;1.77;1.63;;;;;;;13.23;47.13;100307.88;10488165;28;20257;-36
2023/01/06 08:18:08;;;;;;;2.00;1.90;;;;;;;12.62;48.25;100366.34;10487179;28;20245;-36
2023/01/06 08:23:10;;;;;;;1.60;1.50;;;;;;;13.14;47.28;100281.31;10487388;28;20318;-36
2023/01/06 08:28:11;;;;;;;2.00;1.90;;;;;;;13.63;46.99;100294.88;10489230;28;20228;-37
2023/01/06 08:33:13;;;;;;;1.70;1.60;;;;;;;12.98;47.36;100299.31;10483521;28;20270;-35
2023/01/06 08:38:15;;;;;;;3.77;2.17;;;;;;;13.01;47.32;100319.56;10485176;28;20223;-35
2023/01/06 08:43:17;;;;;;;2.03;1.93;;;;;;;12.97;48.16;100302.19;10483837;28;20349;-37
2023/01/06 08:48:19;;;;;;;1.63;1.53;;;;;;;13.34;47.49;100271.63;10483455;28;20227;-36
2023/01/06 08:53:21;;;;;;;2.27;2.17;;;;;;;13.25;47.32;100305.00;10478782;28;20231;-35
2023/01/06 08:58:23;;;;;;;2.73;2.47;;;;;;;12.35;49.08;100349.81;10486867;28;20235;-35
2023/01/06 09:03:25;;;;;;;2.30;2.10;;;;;;;13.32;48.20;100311.31;10486599;28;20239;-36
2023/01/06 09:08:27;;;;;;;2.23;2.07;;;;;;;11.94;49.80;100342.13;10486369;28;20238;-35
2023/01/06 09:13:28;;;;;;;2.27;1.60;;;;;;;13.34;47.58;100295.00;10486540;28;20238;-35
2023/01/06 09:18:30;;;;;;;2.10;2.00;;;;;;;12.37;49.24;100345.94;10485852;28;20958;-36
2023/01/06 09:23:32;;;;;;;2.27;2.07;;;;;;;13.94;46.95;100284.81;10485490;28;20234;-36
2023/01/06 09:28:34;;;;;;;1.80;1.70;;;;;;;11.29;49.50;100289.78;10482403;28;20736;-36
2023/01/06 09:33:36;;;;;;;2.00;1.90;;;;;;;12.51;47.74;100309.41;10485258;28;20235;-36
2023/01/06 09:38:38;;;;;;;2.33;1.70;;;;;;;12.39;48.44;100284.03;10483097;28;20235;-35
2023/01/06 09:43:53;;;;;;;1.70;1.60;;;;;;;13.93;46.36;100259.75;10484312;28;20234;-35
2023/01/06 09:49:07;;;;;;;2.63;2.43;;;;;;;12.63;48.21;100320.53;10479528;28;20762;-35
2023/01/06 09:54:17;;;;;;;2.17;1.43;;;;;;;12.78;48.54;100315.16;10485442;28;20310;-36
2023/01/06 09:59:37;;;;;;;2.50;2.30;;;;;;;13.52;48.73;100221.97;10487331;28;20233;-37
2023/01/06 10:04:39;;;;;;;2.27;2.13;;;;;;;13.41;48.52;100250.19;10476824;28;20326;-36
2023/01/06 10:10:10;;;;;;;2.20;2.10;;;;;;;13.38;48.99;100210.25;10468222;28;20243;-35
2023/01/06 10:15:21;;;;;;;1.90;1.80;;;;;;;13.72;48.24;100243.66;10482435;28;20313;-36
2023/01/06 10:20:36;;;;;;;2.10;1.90;;;;;;;13.65;47.91;100208.66;10480042;28;20289;-35
2023/01/06 10:25:40;;;;;;;3.03;2.23;;;;;;;13.68;47.36;100240.50;10478774;28;20346;-36
2023/01/06 10:30:53;;;;;;;1.67;1.57;;;;;;;12.80;49.15;100297.00;10484090;28;20317;-36
2023/01/06 10:35:56;;;;;;;2.10;2.00;;;;;;;12.90;47.95;100278.75;10484094;28;20644;-37
2023/01/06 10:41:09;;;;;;;2.07;1.90;;;;;;;13.57;47.63;100249.94;10484440;28;20231;-37
2023/01/06 10:46:11;;;;;;;2.60;1.73;;;;;;;13.42;47.71;100251.88;10472525;28;20715;-37
2023/01/06 10:51:33;;;;;;;2.00;1.90;;;;;;;13.00;47.45;100304.50;10475226;28;20247;-37
2023/01/06 10:56:37;;;;;;;1.60;1.50;;;;;;;12.90;48.43;100310.97;10475078;28;20259;-36
2023/01/06 11:06:30;;;;;;;1.90;1.80;;;;;;;10.73;53.99;100321.97;10450307;28;20835;-63
2023/01/06 11:11:32;;;;;;;5.77;1.97;;;;;;;10.40;54.38;100303.34;10397996;28;21003;-68
2023/01/06 11:16:35;;;;;;;2.40;2.20;;;;;;;10.96;52.97;100274.72;10398223;28;20244;-63
2023/01/06 11:21:43;;;;;;;2.30;2.00;;;;;;;10.85;52.53;100275.94;10400457;28;20236;-63
2023/01/06 11:26:55;;;;;;;1.83;1.77;;;;;;;10.75;52.82;100253.91;10396972;28;20232;-63
2023/01/06 11:32:03;;;;;;;1.67;1.57;;;;;;;11.43;52.29;100227.38;10401608;28;20228;-63
2023/01/06 11:37:04;;;;;;;2.60;2.00;;;;;;;10.79;52.83;100259.75;10402029;28;20228;-63
2023/01/06 11:42:12;;;;;;;2.40;2.20;;;;;;;10.68;52.47;100264.44;10401462;28;20239;-63
2023/01/06 11:47:25;;;;;;;2.40;2.20;;;;;;;10.81;51.83;100245.16;10397720;28;20243;-62
2023/01/06 11:52:31;;;;;;;2.50;2.30;;;;;;;12.03;51.62;100188.19;10393494;28;20274;-61
2023/01/06 11:57:51;;;;;;;2.10;2.00;;;;;;;11.81;51.95;100205.97;10400673;28;20721;-62
2023/01/06 12:03:24;;;;;;;3.23;2.93;;;;;;;12.30;51.36;100169.72;10403130;28;20232;-61
2023/01/06 12:08:54;;;;;;;2.93;2.73;;;;;;;12.38;50.63;100166.97;10384994;28;20241;-63
2023/01/06 12:13:56;;;;;;;2.10;2.00;;;;;;;11.20;51.46;100219.34;10370302;28;20226;-63
2023/01/06 12:19:24;;;;;;;2.00;1.90;;;;;;;11.10;51.34;100221.41;10358704;28;20239;-62
2023/01/06 12:24:28;;;;;;;2.30;2.10;;;;;;;10.28;52.69;100215.41;10406595;28;20241;-63
2023/01/06 12:29:32;;;;;;;2.60;2.30;;;;;;;11.13;51.48;100243.31;10417446;28;20669;-63
2023/01/06 12:34:39;;;;;;;2.10;2.00;;;;;;;11.47;50.79;100234.03;10409998;28;20229;-63
2023/01/06 12:39:54;;;;;;;2.40;2.20;;;;;;;11.92;50.41;100223.47;10408910;28;20240;-63
2023/01/06 12:45:03;;;;;;;3.10;1.53;;;;;;;11.17;50.81;100243.81;10402628;28;20890;-65
2023/01/06 12:50:27;;;;;;;2.20;2.00;;;;;;;12.11;49.22;100179.19;10407002;28;20240;-65
2023/01/06 12:55:41;;;;;;;2.30;2.10;;;;;;;11.22;49.31;100236.91;10407808;28;20602;-65
2023/01/06 13:00:52;;;;;;;2.30;2.10;;;;;;;11.90;49.50;100246.97;10407807;28;20236;-65
2023/01/06 13:06:31;;;;;;;2.87;2.07;;;;;;;11.90;49.21;100225.53;10400888;28;20889;-64
2023/01/06 13:11:58;;;;;;;2.47;2.20;;;;;;;11.37;50.21;100281.69;10408283;28;20232;-64
2023/01/06 13:17:12;;;;;;;2.90;2.70;;;;;;;10.99;50.39;100260.97;10405086;28;20239;-64
2023/01/06 13:22:20;;;;;;;2.93;2.13;;;;;;;11.56;50.13;100254.44;10404429;28;20236;-63
2023/01/06 13:27:34;;;;;;;2.50;2.30;;;;;;;13.15;48.04;100186.25;10412695;28;20255;-64
2023/01/06 13:32:53;;;;;;;5.63;2.60;;;;;;;11.56;49.67;100237.53;10398682;28;20237;-64
2023/01/06 13:38:01;;;;;;;3.17;1.87;;;;;;;12.01;49.01;100206.28;10408236;28;20246;-64
2023/01/06 13:43:06;;;;;;;1.70;1.60;;;;;;;12.78;48.46;100201.56;10405364;28;20729;-63
2023/01/06 13:48:19;;;;;;;2.73;2.00;;;;;;;11.65;49.77;100259.75;10405763;28;20236;-64
2023/01/06 13:53:22;;;;;;;2.03;1.87;;;;;;;11.25;49.90;100266.03;10402588;28;20228;-64
2023/01/06 13:58:24;;;;;;;5.60;3.70;;;;;;;12.25;49.02;100242.75;10409250;28;20236;-63
2023/01/06 14:03:26;;;;;;;66.60;44.10;;;;;;;12.83;48.06;100209.88;10404802;28;20251;-64
2023/01/06 14:08:32;;;;;;;15.20;10.43;;;;;;;11.37;50.83;100292.41;10411995;28;20237;-63
2023/01/06 14:13:39;;;;;;;3.50;3.20;;;;;;;11.33;51.07;100289.25;10403476;28;20236;-64
2023/01/06 14:19:03;;;;;;;4.03;2.57;;;;;;;11.94;50.08;100245.59;10407565;28;20232;-64
2023/01/06 14:24:16;;;;;;;5.47;3.50;;;;;;;11.86;50.48;100264.44;10401523;28;20228;-62
2023/01/06 14:29:40;;;;;;;3.20;2.90;;;;;;;12.43;50.47;100220.91;10397455;28;20228;-61
2023/01/06 14:34:56;;;;;;;3.87;3.37;;;;;;;12.67;48.91;100200.16;10405252;28;20235;-63
2023/01/06 14:40:00;;;;;;;3.67;2.97;;;;;;;13.74;47.87;100226.28;10401988;28;20235;-62
2023/01/06 14:45:16;;;;;;;6.20;3.40;;;;;;;11.72;50.84;100282.16;10403588;28;20614;-62
2023/01/06 14:50:40;;;;;;;4.00;3.60;;;;;;;12.71;49.36;100209.53;10398969;28;20249;-61
2023/01/06 14:55:49;;;;;;;6.23;4.17;;;;;;;12.04;50.16;100281.03;10402968;28;20302;-63
2023/01/06 15:00:52;;;;;;;3.73;2.80;;;;;;;11.87;49.82;100261.56;10397609;28;20249;-62
2023/01/06 15:06:21;;;;;;;1.87;1.77;;;;;;;11.60;49.25;100250.34;10402849;28;20236;-62
2023/01/06 15:11:26;;;;;;;2.50;2.27;;;;;;;11.26;49.97;100273.03;10403825;28;20737;-62
2023/01/06 15:16:37;;;;;;;1.60;1.50;;;;;;;11.69;49.93;100272.59;10403727;28;20234;-63
2023/01/06 15:21:40;;;;;;;2.87;2.17;;;;;;;12.03;49.08;100232.91;10405005;28;20861;-63
2023/01/06 15:26:42;;;;;;;2.00;1.90;;;;;;;12.36;48.58;100206.56;10401228;28;20244;-63
2023/01/06 15:31:46;;;;;;;2.40;2.20;;;;;;;11.09;50.94;100287.56;10401442;28;20251;-62
2023/01/06 15:36:51;;;;;;;3.00;1.70;;;;;;;11.36;49.30;100286.22;10405130;28;20439;-61
2023/01/06 15:41:54;;;;;;;2.80;2.30;;;;;;;11.81;48.92;100240.81;10402014;28;20239;-62
2023/01/06 15:47:10;;;;;;;2.50;2.30;;;;;;;13.21;47.73;100217.72;10400056;28;20244;-61
2023/01/06 15:52:33;;;;;;;4.13;2.90;;;;;;;11.03;51.05;100274.84;10405948;28;20308;-62
2023/01/06 15:57:38;;;;;;;2.63;2.43;;;;;;;10.96;50.94;100281.94;10404604;28;20710;-65
2023/01/06 16:02:40;;;;;;;4.90;2.80;;;;;;;11.55;50.21;100279.53;10407559;28;20236;-66
2023/01/06 16:07:43;;;;;;;1.57;1.53;;;;;;;11.26;50.51;100269.53;10415735;28;20239;-67
2023/01/06 16:12:45;;;;;;;2.43;2.23;;;;;;;10.50;51.35;100239.75;10413448;28;20232;-64
2023/01/06 16:17:47;;;;;;;2.30;2.10;;;;;;;10.69;50.98;100254.56;10409906;28;20228;-62
2023/01/06 16:22:54;;;;;;;2.10;1.90;;;;;;;10.47;51.33;100237.44;10403869;28;20232;-62
2023/01/06 16:27:59;;;;;;;2.87;2.30;;;;;;;11.57;50.03;100221.22;10414760;28;20634;-63
2023/01/06 16:33:01;;;;;;;4.00;3.60;;;;;;;11.94;49.58;100203.50;10406220;28;20228;-62
2023/01/06 16:38:03;;;;;;;4.07;3.57;;;;;;;11.01;50.68;100252.78;10408968;28;20323;-63
2023/01/06 16:43:06;;;;;;;5.37;3.40;;;;;;;10.57;51.56;100245.25;10408949;28;20233;-69
2023/01/06 16:48:13;;;;;;;7.70;3.67;;;;;;;10.79;50.63;100235.66;10406475;28;20241;-62
2023/01/06 16:53:19;;;;;;;3.73;3.20;;;;;;;10.11;51.52;100208.47;10405230;28;20225;-63
2023/01/06 16:58:26;;;;;;;2.90;2.50;;;;;;;10.38;51.20;100230.41;10404449;28;20626;-60
2023/01/06 17:03:33;;;;;;;2.63;2.40;;;;;;;10.42;51.17;100239.78;10403433;28;20721;-61
2023/01/06 17:08:37;;;;;;;2.67;2.47;;;;;;;11.40;49.17;100196.41;10405241;28;20240;-60
2023/01/06 17:13:44;;;;;;;2.20;2.00;;;;;;;11.79;49.54;100216.91;10403481;28;20244;-62
2023/01/06 17:18:51;;;;;;;2.20;1.77;;;;;;;11.78;48.84;100231.31;10405247;28;20316;-62
2023/01/06 17:24:04;;;;;;;6.30;2.53;;;;;;;11.55;48.96;100259.97;10403800;28;20232;-60
2023/01/06 17:29:13;;;;;;;2.37;2.20;;;;;;;9.91;50.30;100202.66;10405751;28;20240;-62
2023/01/06 17:34:22;;;;;;;1.83;1.60;;;;;;;10.21;50.52;100243.00;10407860;28;20603;-61
2023/01/06 17:39:29;;;;;;;2.30;2.10;;;;;;;11.02;49.90;100228.50;10398231;28;20242;-62
2023/01/06 17:44:37;;;;;;;3.00;2.60;;;;;;;9.88;50.93;100224.38;10401643;28;20244;-63
2023/01/06 17:49:38;;;;;;;1.93;1.83;;;;;;;10.39;50.29;100251.66;10401234;28;20237;-63
2023/01/06 18:00:02;;;;;;;1.90;1.80;;;;;;;11.38;49.34;100213.69;10404207;28;20257;-62
2023/01/06 18:05:33;;;;;;;2.13;1.70;;;;;;;10.39;50.00;100286.44;10410743;28;20254;-63
2023/01/06 18:10:44;;;;;;;3.57;2.80;;;;;;;11.24;48.36;100282.28;10389124;28;20260;-63
2023/01/06 18:15:49;;;;;;;5.00;4.43;;;;;;;11.17;48.67;100300.06;10400857;28;20608;-62
2023/01/06 18:21:15;;;;;;;2.67;2.43;;;;;;;10.32;50.05;100285.44;10407560;28;20241;-67
2023/01/06 18:26:26;;;;;;;3.30;3.00;;;;;;;11.44;48.70;100309.47;10411247;28;20242;-62
2023/01/06 18:31:33;;;;;;;3.93;3.10;;;;;;;12.42;46.73;100246.09;10403297;28;20319;-62
2023/01/06 18:36:35;;;;;;;4.07;2.80;;;;;;;13.25;45.38;100259.31;10404844;28;20743;-62
2023/01/06 18:41:36;;;;;;;6.53;3.33;;;;;;;11.86;46.73;100297.47;10402750;28;20240;-62
2023/01/06 18:46:40;;;;;;;5.50;3.73;;;;;;;14.01;43.88;100270.38;10402106;28;20252;-62
2023/01/06 18:51:42;;;;;;;5.83;4.20;;;;;;;12.93;45.91;100313.28;10401565;28;20828;-63
2023/01/06 18:56:44;;;;;;;5.67;4.60;;;;;;;13.50;44.28;100259.81;10400720;28;20247;-63
2023/01/06 19:01:49;;;;;;;20.83;14.53;;;;;;;11.89;47.06;100341.84;10400111;28;20232;-61
2023/01/06 19:07:08;;;;;;;10.50;7.57;;;;;;;10.59;50.10;100299.44;10402884;28;20256;-61
2023/01/06 19:12:28;;;;;;;10.00;7.10;;;;;;;10.05;51.24;100275.97;10405067;28;20227;-60
2023/01/06 19:17:35;;;;;;;5.63;5.13;;;;;;;11.45;49.63;100308.44;10400856;28;20258;-61
2023/01/06 19:22:37;;;;;;;12.90;11.57;;;;;;;10.74;51.24;100302.25;10405294;28;20232;-62
2023/01/06 19:27:44;;;;;;;4.30;3.33;;;;;;;9.12;54.34;100184.41;10412915;28;20242;-63
2023/01/06 19:32:46;;;;;;;3.03;2.80;;;;;;;8.71;55.08;100216.34;10409313;28;20722;-62
2023/01/06 19:37:53;;;;;;;4.10;3.10;;;;;;;11.56;49.70;100216.06;10412805;28;20259;-62
2023/01/06 19:43:13;;;;;;;4.70;4.00;;;;;;;11.38;49.71;100294.09;10407116;28;20260;-62
2023/01/06 19:48:32;;;;;;;5.30;4.33;;;;;;;10.19;51.60;100286.00;10424399;28;20250;-62
2023/01/06 19:53:58;;;;;;;4.57;4.10;;;;;;;11.87;48.99;100217.84;10431547;28;20231;-63
2023/01/06 19:59:24;;;;;;;5.90;4.60;;;;;;;12.62;47.26;100214.19;10432129;28;20303;-63
2023/01/06 20:04:26;;;;;;;5.07;4.57;;;;;;;11.07;49.25;100294.94;10411637;28;20309;-63
2023/01/06 20:09:29;;;;;;;4.17;3.50;;;;;;;11.36;50.19;100246.03;10434722;28;20231;-62
2023/01/06 20:14:33;;;;;;;7.03;4.10;;;;;;;10.57;51.54;100291.56;10431096;28;20232;-62
2023/01/06 20:19:35;;;;;;;4.73;4.03;;;;;;;10.57;50.54;100267.50;10435322;28;20239;-62
2023/01/06 20:24:37;;;;;;;4.10;3.70;;;;;;;9.50;53.32;100205.31;10430456;28;20232;-62
2023/01/06 20:29:38;;;;;;;4.63;3.43;;;;;;;12.63;47.57;100177.41;10414616;28;20235;-61
2023/01/06 20:34:40;;;;;;;6.17;3.90;;;;;;;13.63;45.55;100183.78;10396112;28;20622;-62
2023/01/06 20:39:42;;;;;;;5.23;4.30;;;;;;;11.11;49.49;100303.44;10402277;28;20259;-62
2023/01/06 20:44:43;;;;;;;5.60;3.77;;;;;;;10.30;52.09;100280.28;10407392;28;20244;-62
2023/01/06 20:49:45;;;;;;;4.33;3.90;;;;;;;10.31;51.00;100271.25;10405654;28;20251;-62
2023/01/06 20:54:47;;;;;;;4.63;4.13;;;;;;;11.04;50.83;100257.78;10412399;28;20236;-61
2023/01/06 20:59:48;;;;;;;14.57;8.97;;;;;;;9.67;53.04;100239.06;10396395;28;20725;-62
2023/01/06 21:04:50;;;;;;;5.33;4.20;;;;;;;10.29;53.15;100218.91;10394545;28;20244;-62
2023/01/06 21:09:52;;;;;;;4.87;3.77;;;;;;;9.92;53.26;100245.25;10411410;28;20243;-63
2023/01/06 21:14:53;;;;;;;3.97;3.60;;;;;;;9.86;53.21;100237.06;10400159;28;20240;-62
2023/01/06 21:19:55;;;;;;;4.40;3.70;;;;;;;10.12;52.60;100228.81;10403737;28;20616;-62
2023/01/06 21:24:57;;;;;;;4.50;3.10;;;;;;;9.63;52.79;100234.19;10395551;28;20329;-64
2023/01/06 21:29:59;;;;;;;2.90;2.70;;;;;;;9.36;53.91;100212.97;10400118;28;20245;-62
2023/01/06 21:35:00;;;;;;;3.90;3.40;;;;;;;10.04;52.96;100210.97;10416770;28;20232;-61
2023/01/06 21:40:06;;;;;;;4.17;3.00;;;;;;;10.20;52.06;100209.25;10404265;28;20375;-64
2023/01/06 21:45:08;;;;;;;4.93;2.60;;;;;;;10.00;52.78;100203.47;10404225;28;20240;-65
2023/01/06 21:50:11;;;;;;;3.03;2.70;;;;;;;9.50;53.54;100207.97;10403275;28;20696;-64
2023/01/06 21:55:13;;;;;;;3.10;2.80;;;;;;;10.02;51.45;100220.16;10398644;28;20240;-66
2023/01/06 22:00:15;;;;;;;2.97;2.70;;;;;;;10.64;51.19;100206.91;10411126;28;20247;-70
2023/01/06 22:05:17;;;;;;;2.93;2.73;;;;;;;11.33;50.40;100146.41;10404064;28;20237;-63
2023/01/06 22:10:23;;;;;;;3.10;2.90;;;;;;;10.56;51.25;100222.16;10416295;28;20240;-62
2023/01/06 22:15:26;;;;;;;2.93;2.40;;;;;;;9.85;52.78;100204.13;10402926;28;20232;-62
2023/01/06 22:20:30;;;;;;;2.93;2.50;;;;;;;10.59;50.61;100219.16;10402693;28;20243;-60
2023/01/06 22:25:32;;;;;;;3.50;3.20;;;;;;;12.93;46.86;100127.97;10395038;28;20237;-63
2023/01/06 22:30:34;;;;;;;3.33;2.90;;;;;;;11.47;49.75;100236.72;10393926;28;20241;-63
2023/01/06 22:35:35;;;;;;;3.77;3.00;;;;;;;12.78;47.66;100142.47;10394368;28;20233;-63
2023/01/06 22:40:37;;;;;;;3.83;3.37;;;;;;;12.12;48.27;100188.91;10407008;28;20243;-64
2023/01/06 22:45:39;;;;;;;4.53;3.60;;;;;;;12.04;49.09;100195.19;10403193;28;20232;-63
2023/01/06 22:50:41;;;;;;;4.20;3.83;;;;;;;12.88;47.44;100143.81;10408753;28;20273;-63
2023/01/06 22:55:42;;;;;;;4.50;3.97;;;;;;;12.44;48.41;100165.41;10398725;28;20733;-61
2023/01/06 23:00:44;;;;;;;6.13;4.00;;;;;;;10.82;50.43;100241.50;10401177;28;20248;-62
2023/01/06 23:06:01;;;;;;;5.47;4.03;;;;;;;12.53;48.45;100158.91;10400775;28;20239;-63
2023/01/06 23:11:05;;;;;;;4.20;3.13;;;;;;;12.58;47.60;100151.13;10400912;28;20231;-64
2023/01/06 23:16:13;;;;;;;3.33;2.90;;;;;;;10.64;51.58;100228.31;10397626;28;20777;-61
2023/01/06 23:21:20;;;;;;;4.30;3.10;;;;;;;11.63;50.29;100160.75;10402377;28;20347;-62
2023/01/06 23:26:28;;;;;;;4.90;3.23;;;;;;;11.20;50.29;100217.53;10394467;28;20245;-62
2023/01/06 23:31:32;;;;;;;3.00;2.70;;;;;;;11.89;48.64;100156.81;10401130;28;20231;-62
2023/01/06 23:36:35;;;;;;;3.00;2.80;;;;;;;10.23;52.33;100192.88;10397585;28;20726;-63
2023/01/06 23:41:37;;;;;;;2.70;2.50;;;;;;;9.45;54.50;100146.19;10402960;28;20939;-62
2023/01/06 23:46:39;;;;;;;3.20;2.90;;;;;;;12.99;47.68;100079.84;10397211;28;20240;-62
2023/01/06 23:51:41;;;;;;;2.97;2.77;;;;;;;12.72;47.60;100099.25;10394469;28;20248;-62